createdAt,value
2018-12-26T00:00:51.962Z,35.30
2018-12-26T00:01:51.944Z,35.39
2018-12-26T00:02:51.931Z,35.31
2018-12-26T00:03:52.034Z,35.11
2018-12-26T00:04:51.916Z,35.30
2018-12-26T00:05:51.901Z,35.10
2018-12-26T00:06:51.899Z,35.10
2018-12-26T00:07:51.879Z,35.39
2018-12-26T00:08:51.873Z,35.30
2018-12-26T00:09:51.863Z,35.30
2018-12-26T00:10:51.878Z,35.19
2018-12-26T00:11:51.870Z,35.30
2018-12-26T00:12:51.831Z,35.39
2018-12-26T00:13:51.818Z,35.30
2018-12-26T00:14:51.835Z,35.50
2018-12-26T00:15:51.800Z,35.19
2018-12-26T00:16:51.790Z,35.50
2018-12-26T00:17:51.787Z,35.10
2018-12-26T00:18:51.768Z,35.30
2018-12-26T00:19:51.824Z,34.80
2018-12-26T00:20:51.747Z,35.10
2018-12-26T00:21:51.725Z,35.31
2018-12-26T00:22:51.721Z,35.50
2018-12-26T00:23:51.730Z,35.60
2018-12-26T00:24:51.710Z,35.10
2018-12-26T00:25:51.686Z,34.99
2018-12-26T00:26:51.679Z,35.50
2018-12-26T00:27:51.673Z,35.10
2018-12-26T00:28:51.666Z,35.60
2018-12-26T00:29:51.678Z,35.60
2018-12-26T00:30:51.637Z,35.39
2018-12-26T00:31:51.633Z,35.10
2018-12-26T00:32:51.647Z,35.19
2018-12-26T00:33:51.607Z,35.10
2018-12-26T00:34:51.597Z,35.39
2018-12-26T00:35:51.581Z,35.50
2018-12-26T00:36:51.578Z,35.10
2018-12-26T00:37:51.565Z,35.61
2018-12-26T00:38:51.557Z,35.51
2018-12-26T00:39:51.545Z,35.91
2018-12-26T00:40:51.527Z,35.61
2018-12-26T00:41:51.523Z,35.82
2018-12-26T00:42:51.514Z,35.51
2018-12-26T00:43:51.519Z,35.61
2018-12-26T00:44:51.493Z,35.30
2018-12-26T00:45:51.478Z,34.99
2018-12-26T00:46:51.476Z,34.99
2018-12-26T00:47:51.460Z,35.10
2018-12-26T00:48:51.464Z,34.80
2018-12-26T00:49:51.439Z,34.99
2018-12-26T00:50:51.448Z,35.30
2018-12-26T00:51:51.413Z,35.10
2018-12-26T00:52:51.408Z,35.30
2018-12-26T00:53:51.418Z,35.50
2018-12-26T00:54:51.382Z,34.99
2018-12-26T00:55:51.382Z,35.19
2018-12-26T00:56:51.366Z,35.71
2018-12-26T00:57:51.349Z,36.02
2018-12-26T00:58:51.342Z,35.71
2018-12-26T00:59:51.366Z,35.91
2018-12-26T01:00:51.413Z,35.51
2018-12-26T01:01:51.310Z,35.61
2018-12-26T01:02:51.298Z,35.61
2018-12-26T01:03:51.421Z,35.19
2018-12-26T01:04:51.281Z,35.60
2018-12-26T01:05:51.265Z,34.99
2018-12-26T01:06:51.256Z,34.89
2018-12-26T01:07:51.280Z,35.21
2018-12-26T01:08:51.234Z,35.71
2018-12-26T01:09:51.227Z,35.61
2018-12-26T01:10:51.212Z,35.82
2018-12-26T01:11:51.199Z,36.02
2018-12-26T01:12:51.210Z,35.82
2018-12-26T01:13:51.189Z,35.61
2018-12-26T01:14:51.186Z,35.91
2018-12-26T01:15:51.160Z,36.11
2018-12-26T01:16:51.149Z,35.93
2018-12-26T01:17:51.141Z,36.02
2018-12-26T01:18:51.130Z,35.61
2018-12-26T01:19:51.132Z,35.71
2018-12-26T01:20:51.105Z,35.82
2018-12-26T01:21:51.099Z,35.41
2018-12-26T01:22:51.089Z,35.82
2018-12-26T01:23:51.083Z,35.71
2018-12-26T01:24:51.067Z,34.89
2018-12-26T01:25:51.052Z,35.61
2018-12-26T01:26:51.049Z,35.51
2018-12-26T01:27:51.033Z,35.91
2018-12-26T01:28:51.024Z,35.82
2018-12-26T01:29:51.018Z,35.91
2018-12-26T01:30:51.002Z,35.51
2018-12-26T01:31:51.002Z,35.83
2018-12-26T01:32:50.976Z,35.63
2018-12-26T01:33:50.983Z,36.02
2018-12-26T01:34:50.964Z,35.91
2018-12-26T01:35:50.960Z,35.82
2018-12-26T01:36:50.941Z,35.82
2018-12-26T01:37:50.926Z,35.71
2018-12-26T01:38:50.917Z,35.61
2018-12-26T01:39:50.905Z,36.02
2018-12-26T01:40:50.894Z,35.91
2018-12-26T01:41:50.902Z,35.91
2018-12-26T01:42:50.884Z,36.02
2018-12-26T01:43:50.909Z,35.71
2018-12-26T01:44:50.854Z,35.83
2018-12-26T01:45:50.843Z,35.83
2018-12-26T01:46:50.840Z,35.61
2018-12-26T01:47:50.820Z,35.51
2018-12-26T01:48:50.813Z,36.11
2018-12-26T01:49:50.830Z,35.82
2018-12-26T01:50:50.819Z,35.71
2018-12-26T01:51:50.773Z,35.61
2018-12-26T01:52:50.774Z,34.89
2018-12-26T01:53:50.776Z,35.39
2018-12-26T01:54:50.747Z,35.39
2018-12-26T01:55:50.738Z,35.30
2018-12-26T01:56:50.727Z,34.99
2018-12-26T01:57:50.723Z,34.89
2018-12-26T01:58:50.722Z,35.01
2018-12-26T01:59:50.695Z,35.11
2018-12-26T02:00:50.688Z,36.02
2018-12-26T02:01:50.671Z,35.71
2018-12-26T02:02:50.666Z,35.82
2018-12-26T02:03:50.654Z,35.61
2018-12-26T02:04:50.643Z,35.82
2018-12-26T02:05:50.641Z,35.91
2018-12-26T02:06:50.618Z,35.82
2018-12-26T02:07:50.612Z,35.91
2018-12-26T02:08:50.600Z,35.51
2018-12-26T02:09:50.590Z,36.11
2018-12-26T02:10:50.577Z,35.82
2018-12-26T02:11:50.574Z,35.11
2018-12-26T02:12:50.588Z,35.82
2018-12-26T02:13:50.543Z,36.02
2018-12-26T02:14:50.537Z,36.02
2018-12-26T02:15:50.531Z,36.32
2018-12-26T02:16:50.520Z,35.82
2018-12-26T02:17:50.511Z,35.91
2018-12-26T02:18:50.492Z,35.71
2018-12-26T02:19:50.486Z,36.02
2018-12-26T02:20:50.474Z,35.91
2018-12-26T02:21:50.462Z,35.61
2018-12-26T02:22:50.523Z,35.82
2018-12-26T02:23:50.482Z,36.11
2018-12-26T02:24:50.427Z,36.02
2018-12-26T02:25:50.420Z,35.41
2018-12-26T02:26:50.409Z,36.02
2018-12-26T02:27:50.401Z,35.91
2018-12-26T02:28:50.388Z,35.91
2018-12-26T02:29:50.389Z,36.02
2018-12-26T02:30:50.389Z,35.53
2018-12-26T02:31:50.352Z,35.63
2018-12-26T02:32:50.368Z,35.73
2018-12-26T02:33:50.339Z,35.61
2018-12-26T02:34:50.387Z,36.03
2018-12-26T02:35:50.313Z,35.91
2018-12-26T02:36:50.502Z,35.91
2018-12-26T02:37:50.336Z,35.71
2018-12-26T02:38:50.284Z,35.71
2018-12-26T02:39:50.272Z,35.61
2018-12-26T02:40:50.259Z,35.71
2018-12-26T02:41:50.333Z,36.02
2018-12-26T02:42:50.261Z,36.02
2018-12-26T02:43:50.245Z,35.82
2018-12-26T02:44:50.240Z,35.82
2018-12-26T02:45:50.262Z,35.73
2018-12-26T02:46:50.215Z,35.63
2018-12-26T02:47:50.200Z,35.63
2018-12-26T02:48:50.188Z,36.03
2018-12-26T02:49:50.176Z,35.63
2018-12-26T02:50:50.172Z,35.53
2018-12-26T02:51:50.143Z,35.73
2018-12-26T02:52:50.138Z,35.63
2018-12-26T02:53:50.125Z,35.83
2018-12-26T02:54:50.115Z,35.82
2018-12-26T02:55:50.102Z,35.91
2018-12-26T02:56:50.139Z,35.91
2018-12-26T02:57:50.088Z,35.71
2018-12-26T02:58:50.069Z,36.02
2018-12-26T02:59:50.063Z,35.41
2018-12-26T03:00:50.047Z,35.80
2018-12-26T03:01:50.035Z,35.60
2018-12-26T03:02:50.026Z,35.10
2018-12-26T03:03:50.027Z,34.89
2018-12-26T03:04:50.017Z,35.19
2018-12-26T03:05:50.006Z,34.91
2018-12-26T03:06:49.984Z,35.61
2018-12-26T03:07:49.996Z,35.91
2018-12-26T03:08:49.966Z,35.82
2018-12-26T03:09:49.953Z,35.82
2018-12-26T03:10:49.945Z,35.82
2018-12-26T03:11:49.927Z,35.91
2018-12-26T03:12:49.925Z,35.71
2018-12-26T03:13:49.938Z,35.82
2018-12-26T03:14:49.905Z,35.91
2018-12-26T03:15:49.894Z,35.91
2018-12-26T03:16:49.880Z,35.71
2018-12-26T03:17:49.867Z,35.61
2018-12-26T03:18:49.872Z,35.11
2018-12-26T03:19:49.852Z,34.89
2018-12-26T03:20:49.854Z,35.50
2018-12-26T03:21:49.833Z,35.50
2018-12-26T03:22:49.818Z,35.39
2018-12-26T03:23:49.804Z,35.11
2018-12-26T03:24:49.798Z,35.51
2018-12-26T03:25:49.795Z,35.60
2018-12-26T03:26:55.984Z,35.71
2018-12-26T03:27:50.772Z,36.41
2018-12-26T03:28:49.758Z,35.82
2018-12-26T03:29:49.763Z,35.82
2018-12-26T03:30:49.748Z,36.02
2018-12-26T03:31:49.733Z,36.02
2018-12-26T03:32:49.712Z,35.61
2018-12-26T03:33:49.704Z,35.82
2018-12-26T03:34:49.685Z,35.60
2018-12-26T03:35:49.677Z,35.11
2018-12-26T03:36:49.670Z,35.11
2018-12-26T03:37:49.659Z,35.41
2018-12-26T03:38:49.646Z,35.30
2018-12-26T03:39:49.639Z,35.60
2018-12-26T03:40:49.627Z,35.10
2018-12-26T03:41:49.614Z,35.39
2018-12-26T03:42:49.610Z,35.31
2018-12-26T03:43:49.590Z,35.30
2018-12-26T03:44:49.588Z,35.31
2018-12-26T03:45:49.571Z,35.82
2018-12-26T03:46:49.560Z,35.31
2018-12-26T03:47:49.544Z,35.51
2018-12-26T03:48:49.536Z,35.71
2018-12-26T03:49:49.547Z,35.91
2018-12-26T03:50:49.520Z,36.02
2018-12-26T03:51:49.507Z,35.71
2018-12-26T03:52:49.496Z,35.82
2018-12-26T03:53:49.483Z,35.71
2018-12-26T03:54:49.491Z,35.82
2018-12-26T03:55:49.475Z,35.51
2018-12-26T03:56:49.461Z,35.71
2018-12-26T03:57:49.439Z,35.71
2018-12-26T03:58:49.447Z,35.82
2018-12-26T03:59:49.421Z,35.93
2018-12-26T04:00:49.470Z,35.93
2018-12-26T04:01:49.397Z,35.73
2018-12-26T04:02:49.464Z,35.82
2018-12-26T04:03:49.417Z,35.93
2018-12-26T04:04:49.509Z,35.93
2018-12-26T04:05:49.361Z,35.83
2018-12-26T04:06:49.367Z,35.61
2018-12-26T04:07:49.350Z,35.82
2018-12-26T04:08:49.355Z,35.71
2018-12-26T04:09:49.312Z,35.51
2018-12-26T04:10:49.322Z,36.11
2018-12-26T04:11:49.293Z,35.61
2018-12-26T04:12:49.283Z,35.41
2018-12-26T04:13:49.278Z,36.02
2018-12-26T04:14:49.271Z,36.02
2018-12-26T04:15:49.254Z,35.82
2018-12-26T04:16:49.243Z,35.61
2018-12-26T04:17:49.231Z,35.61
2018-12-26T04:18:49.219Z,35.82
2018-12-26T04:19:49.207Z,35.61
2018-12-26T04:20:49.200Z,35.82
2018-12-26T04:21:49.188Z,35.71
2018-12-26T04:22:49.185Z,35.61
2018-12-26T04:23:49.188Z,35.82
2018-12-26T04:24:49.163Z,35.91
2018-12-26T04:25:49.158Z,35.82
2018-12-26T04:26:49.132Z,35.71
2018-12-26T04:27:49.153Z,36.02
2018-12-26T04:28:49.115Z,35.91
2018-12-26T04:29:49.102Z,35.82
2018-12-26T04:30:49.094Z,35.91
2018-12-26T04:31:49.084Z,35.71
2018-12-26T04:32:49.085Z,35.82
2018-12-26T04:33:49.071Z,35.61
2018-12-26T04:34:49.045Z,35.82
2018-12-26T04:35:49.045Z,36.11
2018-12-26T04:36:49.039Z,35.83
2018-12-26T04:37:49.029Z,35.93
2018-12-26T04:38:49.016Z,35.93
2018-12-26T04:39:48.998Z,36.03
2018-12-26T04:40:48.994Z,35.63
2018-12-26T04:41:48.985Z,35.61
2018-12-26T04:42:48.985Z,35.61
2018-12-26T04:43:51.353Z,36.02
2018-12-26T04:44:48.986Z,35.61
2018-12-26T04:45:48.946Z,35.41
2018-12-26T04:46:48.931Z,35.61
2018-12-26T04:47:48.915Z,35.61
2018-12-26T04:48:48.902Z,34.91
2018-12-26T04:49:48.912Z,35.91
2018-12-26T04:50:48.916Z,35.31
2018-12-26T04:51:48.871Z,36.02
2018-12-26T04:52:48.907Z,35.51
2018-12-26T04:53:48.856Z,35.82
2018-12-26T04:54:48.854Z,35.91
2018-12-26T04:55:48.867Z,35.91
2018-12-26T04:56:48.843Z,35.71
2018-12-26T04:57:48.810Z,35.61
2018-12-26T04:58:48.799Z,35.82
2018-12-26T04:59:48.783Z,35.30
2018-12-26T05:00:48.775Z,35.30
2018-12-26T05:01:48.777Z,35.30
2018-12-26T05:02:48.765Z,35.01
2018-12-26T05:03:48.781Z,34.91
2018-12-26T05:04:48.800Z,35.82
2018-12-26T05:05:48.721Z,36.02
2018-12-26T05:06:48.713Z,36.41
2018-12-26T05:07:48.792Z,35.61
2018-12-26T05:08:48.690Z,35.51
2018-12-26T05:09:48.683Z,35.39
2018-12-26T05:10:48.671Z,35.60
2018-12-26T05:11:48.660Z,34.98
2018-12-26T05:12:48.659Z,35.06
2018-12-26T05:13:48.644Z,34.46
2018-12-26T05:14:48.642Z,34.14
2018-12-26T05:15:48.618Z,33.94
2018-12-26T05:16:48.625Z,34.23
2018-12-26T05:17:48.835Z,32.31
2018-12-26T05:18:48.580Z,32.40
2018-12-26T05:19:48.592Z,31.99
2018-12-26T05:20:48.569Z,32.38
2018-12-26T05:21:48.553Z,32.67
2018-12-26T05:22:48.553Z,31.75
2018-12-26T05:23:48.535Z,31.95
2018-12-26T05:24:48.522Z,31.04
2018-12-26T05:25:48.512Z,30.72
2018-12-26T05:26:48.531Z,31.22
2018-12-26T05:27:48.485Z,30.72
2018-12-26T05:28:48.476Z,30.21
2018-12-26T05:29:48.473Z,30.40
2018-12-26T05:30:48.459Z,30.69
2018-12-26T05:31:48.441Z,30.59
2018-12-26T05:32:48.446Z,30.59
2018-12-26T05:33:48.430Z,29.90
2018-12-26T05:34:48.414Z,29.88
2018-12-26T05:35:48.398Z,30.48
2018-12-26T05:36:48.397Z,30.08
2018-12-26T05:37:48.386Z,29.77
2018-12-26T05:38:48.376Z,29.98
2018-12-26T05:39:48.362Z,29.57
2018-12-26T05:40:48.349Z,29.27
2018-12-26T05:41:48.334Z,28.87
2018-12-26T05:42:48.341Z,29.57
2018-12-26T05:43:48.335Z,29.37
2018-12-26T05:44:48.305Z,29.46
2018-12-26T05:45:48.311Z,30.15
2018-12-26T05:46:48.287Z,29.95
2018-12-26T05:47:48.275Z,29.95
2018-12-26T05:48:48.272Z,29.65
2018-12-26T05:49:48.260Z,29.85
2018-12-26T05:50:48.245Z,29.24
2018-12-26T05:51:48.279Z,29.64
2018-12-26T05:52:48.221Z,29.25
2018-12-26T05:53:48.213Z,29.75
2018-12-26T05:54:48.205Z,29.34
2018-12-26T05:55:48.197Z,29.44
2018-12-26T05:56:48.198Z,29.34
2018-12-26T05:57:48.170Z,28.85
2018-12-26T05:58:48.165Z,28.94
2018-12-26T05:59:48.180Z,28.74
2018-12-26T06:00:48.137Z,28.74
2018-12-26T06:01:48.165Z,28.34
2018-12-26T06:02:48.161Z,29.03
2018-12-26T06:03:48.136Z,29.04
2018-12-26T06:04:48.146Z,29.04
2018-12-26T06:05:48.083Z,29.03
2018-12-26T06:06:48.072Z,29.04
2018-12-26T06:07:48.076Z,28.93
2018-12-26T06:08:48.057Z,29.33
2018-12-26T06:09:48.062Z,28.63
2018-12-26T06:10:48.029Z,29.13
2018-12-26T06:11:48.017Z,29.13
2018-12-26T06:12:48.027Z,29.13
2018-12-26T06:13:48.003Z,29.43
2018-12-26T06:14:47.998Z,29.33
2018-12-26T06:15:47.978Z,29.13
2018-12-26T06:16:47.966Z,28.91
2018-12-26T06:17:47.956Z,29.11
2018-12-26T06:18:47.952Z,28.72
2018-12-26T06:19:47.937Z,28.91
2018-12-26T06:20:47.929Z,28.42
2018-12-26T06:21:47.937Z,28.32
2018-12-26T06:22:47.904Z,28.32
2018-12-26T06:23:47.901Z,28.42
2018-12-26T06:24:47.883Z,28.22
2018-12-26T06:25:47.892Z,28.62
2018-12-26T06:26:47.869Z,28.42
2018-12-26T06:27:51.501Z,28.22
2018-12-26T06:28:47.943Z,28.42
2018-12-26T06:29:47.849Z,28.52
2018-12-26T06:30:47.819Z,28.42
2018-12-26T06:31:47.814Z,28.62
2018-12-26T06:32:47.813Z,28.22
2018-12-26T06:33:47.789Z,28.72
2018-12-26T06:34:47.795Z,28.62
2018-12-26T06:35:47.811Z,28.72
2018-12-26T06:36:47.757Z,28.62
2018-12-26T06:37:47.751Z,28.72
2018-12-26T06:38:47.755Z,28.22
2018-12-26T06:39:47.745Z,28.20
2018-12-26T06:40:47.873Z,28.22
2018-12-26T06:41:47.702Z,28.11
2018-12-26T06:42:47.711Z,28.20
2018-12-26T06:43:47.735Z,28.41
2018-12-26T06:44:47.677Z,28.30
2018-12-26T06:45:47.668Z,28.60
2018-12-26T06:46:47.651Z,28.60
2018-12-26T06:47:47.636Z,28.60
2018-12-26T06:48:47.631Z,28.60
2018-12-26T06:49:47.617Z,28.20
2018-12-26T06:50:47.610Z,28.41
2018-12-26T06:51:47.601Z,28.50
2018-12-26T06:52:47.586Z,28.60
2018-12-26T06:53:47.581Z,28.11
2018-12-26T06:54:47.600Z,28.20
2018-12-26T06:55:47.558Z,28.11
2018-12-26T06:56:47.560Z,28.20
2018-12-26T06:57:47.531Z,28.11
2018-12-26T06:58:47.532Z,28.60
2018-12-26T06:59:47.525Z,28.41
2018-12-26T07:00:47.511Z,28.80
2018-12-26T07:01:47.491Z,28.60
2018-12-26T07:02:47.608Z,28.60
2018-12-26T07:03:47.475Z,28.60
2018-12-26T07:04:47.463Z,28.80
2018-12-26T07:05:47.457Z,27.91
2018-12-26T07:06:47.460Z,28.80
2018-12-26T07:07:47.439Z,28.49
2018-12-26T07:08:47.425Z,28.90
2018-12-26T07:09:47.427Z,28.59
2018-12-26T07:10:47.392Z,28.49
2018-12-26T07:11:47.384Z,28.41
2018-12-26T07:12:47.390Z,28.60
2018-12-26T07:13:47.370Z,28.59
2018-12-26T07:14:47.379Z,28.30
2018-12-26T07:15:47.343Z,28.60
2018-12-26T07:16:47.365Z,28.60
2018-12-26T07:17:47.326Z,28.20
2018-12-26T07:18:47.317Z,28.30
2018-12-26T07:19:47.306Z,28.30
2018-12-26T07:20:47.292Z,28.30
2018-12-26T07:21:47.961Z,28.20
2018-12-26T07:22:47.279Z,28.11
2018-12-26T07:23:47.263Z,28.30
2018-12-26T07:24:47.251Z,28.30
2018-12-26T07:25:47.246Z,28.20
2018-12-26T07:26:47.227Z,28.50
2018-12-26T07:27:47.218Z,28.29
2018-12-26T07:28:47.227Z,28.60
2018-12-26T07:29:47.199Z,28.60
2018-12-26T07:30:47.183Z,28.59
2018-12-26T07:31:47.181Z,28.59
2018-12-26T07:32:47.163Z,28.60
2018-12-26T07:33:47.259Z,28.60
2018-12-26T07:34:47.150Z,28.59
2018-12-26T07:35:47.146Z,28.59
2018-12-26T07:36:47.127Z,28.39
2018-12-26T07:37:47.116Z,28.49
2018-12-26T07:38:47.101Z,28.59
2018-12-26T07:39:47.088Z,28.50
2018-12-26T07:40:47.105Z,28.89
2018-12-26T07:41:47.077Z,28.89
2018-12-26T07:42:47.065Z,28.89
2018-12-26T07:43:47.083Z,28.69
2018-12-26T07:44:47.046Z,28.69
2018-12-26T07:45:47.036Z,28.99
2018-12-26T07:46:47.043Z,28.28
2018-12-26T07:47:47.032Z,28.18
2018-12-26T07:48:47.002Z,28.29
2018-12-26T07:49:47.050Z,28.58
2018-12-26T07:50:46.975Z,27.89
2018-12-26T07:51:46.968Z,28.49
2018-12-26T07:52:46.955Z,28.08
2018-12-26T07:53:46.951Z,28.08
2018-12-26T07:54:46.947Z,28.08
2018-12-26T07:55:46.919Z,28.08
2018-12-26T07:56:46.918Z,28.28
2018-12-26T07:57:46.913Z,28.18
2018-12-26T07:58:46.912Z,27.89
2018-12-26T07:59:46.886Z,28.28
2018-12-26T08:00:46.868Z,27.98
2018-12-26T08:01:46.861Z,28.67
2018-12-26T08:02:46.860Z,27.98
2018-12-26T08:03:46.838Z,28.18
2018-12-26T08:04:46.852Z,27.88
2018-12-26T08:05:46.857Z,28.08
2018-12-26T08:06:46.816Z,28.58
2018-12-26T08:07:46.826Z,28.59
2018-12-26T08:08:46.802Z,28.89
2018-12-26T08:09:46.799Z,28.89
2018-12-26T08:10:46.772Z,28.79
2018-12-26T08:11:46.773Z,28.79
2018-12-26T08:12:46.746Z,28.59
2018-12-26T08:13:46.735Z,28.49
2018-12-26T08:14:46.723Z,28.29
2018-12-26T08:15:46.748Z,28.19
2018-12-26T08:16:46.829Z,28.29
2018-12-26T08:17:46.739Z,28.19
2018-12-26T08:18:46.711Z,28.59
2018-12-26T08:19:46.671Z,28.59
2018-12-26T08:20:46.666Z,28.19
2018-12-26T08:21:46.661Z,28.59
2018-12-26T08:22:46.653Z,28.29
2018-12-26T08:23:46.625Z,28.59
2018-12-26T08:24:46.611Z,28.58
2018-12-26T08:25:46.636Z,28.58
2018-12-26T08:26:46.597Z,28.88
2018-12-26T08:27:46.591Z,28.77
2018-12-26T08:28:46.605Z,28.47
2018-12-26T08:29:46.599Z,28.38
2018-12-26T08:30:46.555Z,28.97
2018-12-26T08:31:46.546Z,28.88
2018-12-26T08:32:46.529Z,28.88
2018-12-26T08:33:46.527Z,28.38
2018-12-26T08:34:46.537Z,28.88
2018-12-26T08:35:46.503Z,28.18
2018-12-26T08:36:46.491Z,28.67
2018-12-26T08:37:46.480Z,27.98
2018-12-26T08:38:46.484Z,28.67
2018-12-26T08:39:46.469Z,28.67
2018-12-26T08:40:46.482Z,28.58
2018-12-26T08:41:46.477Z,28.28
2018-12-26T08:42:46.430Z,28.67
2018-12-26T08:43:46.416Z,28.77
2018-12-26T08:44:46.418Z,28.47
2018-12-26T08:45:46.480Z,28.58
2018-12-26T08:46:46.386Z,28.58
2018-12-26T08:47:46.396Z,28.47
2018-12-26T08:48:46.364Z,28.58
2018-12-26T08:49:46.357Z,28.28
2018-12-26T08:50:46.350Z,28.58
2018-12-26T08:51:46.375Z,28.47
2018-12-26T08:52:46.320Z,28.18
2018-12-26T08:53:46.308Z,28.28
2018-12-26T08:54:46.298Z,28.28
2018-12-26T08:55:46.289Z,28.38
2018-12-26T08:56:46.304Z,28.19
2018-12-26T08:57:46.350Z,28.28
2018-12-26T08:58:46.406Z,28.58
2018-12-26T08:59:46.282Z,28.58
2018-12-26T09:00:46.235Z,28.58
2018-12-26T09:01:46.234Z,28.28
2018-12-26T09:02:46.217Z,28.08
2018-12-26T09:03:46.253Z,28.58
2018-12-26T09:04:46.194Z,28.47
2018-12-26T09:05:46.184Z,28.58
2018-12-26T09:06:46.180Z,28.77
2018-12-26T09:07:46.164Z,28.58
2018-12-26T09:08:46.223Z,28.58
2018-12-26T09:09:46.142Z,28.08
2018-12-26T09:10:46.148Z,28.18
2018-12-26T09:11:46.134Z,28.58
2018-12-26T09:12:46.109Z,28.28
2018-12-26T09:13:46.107Z,28.28
2018-12-26T09:14:46.092Z,28.47
2018-12-26T09:15:46.088Z,28.28
2018-12-26T09:16:46.073Z,28.38
2018-12-26T09:17:46.060Z,28.58
2018-12-26T09:18:46.047Z,28.58
2018-12-26T09:19:46.034Z,28.47
2018-12-26T09:20:46.054Z,28.58
2018-12-26T09:21:46.039Z,28.58
2018-12-26T09:22:46.006Z,28.46
2018-12-26T09:23:45.999Z,28.88
2018-12-26T09:24:46.011Z,28.58
2018-12-26T09:25:45.972Z,28.47
2018-12-26T09:26:45.960Z,28.58
2018-12-26T09:27:45.978Z,28.38
2018-12-26T09:28:45.946Z,28.88
2018-12-26T09:29:45.946Z,28.88
2018-12-26T09:30:45.987Z,28.77
2018-12-26T09:31:45.914Z,28.38
2018-12-26T09:32:45.910Z,28.46
2018-12-26T09:33:45.894Z,28.38
2018-12-26T09:34:45.916Z,28.38
2018-12-26T09:35:45.868Z,28.77
2018-12-26T09:36:45.854Z,28.58
2018-12-26T09:37:45.849Z,28.77
2018-12-26T09:38:45.840Z,28.88
2018-12-26T09:39:45.847Z,28.58
2018-12-26T09:40:45.815Z,27.97
2018-12-26T09:41:45.812Z,27.97
2018-12-26T09:42:45.829Z,27.97
2018-12-26T09:43:45.801Z,27.97
2018-12-26T09:44:54.205Z,28.58
2018-12-26T09:45:46.843Z,28.18
2018-12-26T09:46:45.753Z,28.86
2018-12-26T09:47:45.742Z,28.96
2018-12-26T09:48:45.729Z,28.76
2018-12-26T09:49:45.740Z,28.38
2018-12-26T09:50:45.736Z,28.38
2018-12-26T09:51:45.704Z,28.38
2018-12-26T09:52:45.687Z,28.38
2018-12-26T09:53:45.680Z,28.96
2018-12-26T09:54:45.668Z,28.88
2018-12-26T09:55:45.659Z,28.97
2018-12-26T09:56:45.660Z,28.46
2018-12-26T09:57:45.643Z,28.96
2018-12-26T09:58:52.502Z,28.36
2018-12-26T09:59:46.622Z,28.56
2018-12-26T10:00:45.610Z,28.58
2018-12-26T10:01:45.605Z,28.58
2018-12-26T10:02:45.597Z,28.56
2018-12-26T10:03:45.608Z,28.28
2018-12-26T10:04:45.564Z,28.28
2018-12-26T10:05:45.555Z,28.46
2018-12-26T10:06:45.543Z,28.56
2018-12-26T10:07:45.533Z,28.06
2018-12-26T10:08:45.521Z,28.27
2018-12-26T10:09:45.511Z,28.28
2018-12-26T10:10:45.497Z,28.27
2018-12-26T10:11:45.494Z,28.47
2018-12-26T10:12:45.498Z,28.27
2018-12-26T10:13:45.481Z,28.47
2018-12-26T10:14:45.467Z,28.58
2018-12-26T10:15:45.445Z,28.58
2018-12-26T10:16:45.434Z,28.56
2018-12-26T10:17:45.421Z,28.27
2018-12-26T10:18:45.409Z,28.27
2018-12-26T10:19:45.448Z,28.56
2018-12-26T10:20:45.391Z,28.17
2018-12-26T10:21:45.378Z,28.06
2018-12-26T10:22:45.383Z,28.06
2018-12-26T10:23:45.362Z,28.18
2018-12-26T10:24:45.361Z,28.47
2018-12-26T10:25:45.338Z,28.56
2018-12-26T10:26:45.331Z,28.47
2018-12-26T10:27:45.321Z,28.17
2018-12-26T10:28:45.314Z,28.27
2018-12-26T10:29:45.301Z,28.58
2018-12-26T10:30:45.287Z,28.27
2018-12-26T10:31:45.278Z,28.56
2018-12-26T10:32:45.267Z,28.56
2018-12-26T10:33:45.250Z,28.36
2018-12-26T10:34:45.249Z,28.56
2018-12-26T10:35:45.244Z,28.18
2018-12-26T10:36:45.226Z,28.58
2018-12-26T10:37:45.220Z,28.58
2018-12-26T10:38:45.245Z,28.18
2018-12-26T10:39:45.195Z,28.27
2018-12-26T10:40:45.191Z,28.06
2018-12-26T10:41:45.180Z,28.76
2018-12-26T10:42:46.089Z,28.18
2018-12-26T10:43:45.240Z,28.18
2018-12-26T10:44:45.140Z,28.18
2018-12-26T10:45:45.130Z,28.17
2018-12-26T10:46:45.132Z,28.76
2018-12-26T10:47:45.107Z,28.56
2018-12-26T10:48:45.106Z,28.56
2018-12-26T10:49:45.093Z,28.58
2018-12-26T10:50:45.084Z,28.08
2018-12-26T10:51:45.068Z,28.08
2018-12-26T10:52:45.073Z,28.08
2018-12-26T10:53:45.059Z,28.17
2018-12-26T10:54:45.033Z,28.56
2018-12-26T10:55:45.028Z,28.56
2018-12-26T10:56:45.009Z,28.27
2018-12-26T10:57:45.006Z,28.56
2018-12-26T10:58:44.997Z,28.27
2018-12-26T10:59:44.978Z,28.18
2018-12-26T11:00:44.976Z,28.17
2018-12-26T11:01:44.960Z,28.27
2018-12-26T11:02:44.955Z,28.06
2018-12-26T11:03:44.936Z,28.76
2018-12-26T11:04:44.937Z,28.56
2018-12-26T11:05:44.924Z,28.56
2018-12-26T11:06:44.913Z,28.56
2018-12-26T11:07:44.895Z,28.58
2018-12-26T11:08:44.885Z,28.06
2018-12-26T11:09:44.881Z,28.17
2018-12-26T11:10:44.875Z,28.56
2018-12-26T11:11:44.860Z,28.56
2018-12-26T11:12:44.844Z,28.56
2018-12-26T11:13:47.653Z,28.36
2018-12-26T11:14:44.820Z,28.27
2018-12-26T11:15:44.817Z,28.06
2018-12-26T11:16:44.802Z,28.06
2018-12-26T11:17:44.793Z,28.17
2018-12-26T11:18:44.783Z,28.36
2018-12-26T11:19:44.770Z,28.08
2018-12-26T11:20:44.775Z,28.36
2018-12-26T11:21:44.755Z,28.27
2018-12-26T11:22:44.741Z,28.27
2018-12-26T11:23:44.734Z,28.46
2018-12-26T11:24:44.719Z,28.46
2018-12-26T11:25:44.766Z,28.47
2018-12-26T11:26:44.699Z,28.56
2018-12-26T11:27:44.695Z,28.28
2018-12-26T11:28:44.682Z,28.67
2018-12-26T11:29:44.667Z,28.67
2018-12-26T11:30:44.655Z,28.56
2018-12-26T11:31:44.665Z,28.47
2018-12-26T11:32:44.635Z,28.47
2018-12-26T11:33:44.626Z,28.56
2018-12-26T11:34:44.645Z,28.56
2018-12-26T11:35:44.626Z,28.46
2018-12-26T11:36:44.589Z,28.17
2018-12-26T11:37:44.581Z,28.47
2018-12-26T11:38:44.569Z,28.66
2018-12-26T11:39:44.566Z,28.18
2018-12-26T11:40:44.550Z,28.18
2018-12-26T11:41:44.538Z,28.27
2018-12-26T11:42:44.536Z,29.07
2018-12-26T11:43:44.532Z,28.77
2018-12-26T11:44:44.546Z,28.58
2018-12-26T11:45:44.511Z,29.07
2018-12-26T11:46:44.494Z,28.97
2018-12-26T11:47:44.479Z,29.07
2018-12-26T11:48:44.472Z,29.07
2018-12-26T11:49:46.669Z,29.07
2018-12-26T11:50:44.447Z,29.07
2018-12-26T11:51:44.446Z,29.17
2018-12-26T11:52:44.460Z,29.07
2018-12-26T11:53:44.909Z,29.07
2018-12-26T11:54:44.423Z,29.07
2018-12-26T11:55:44.409Z,29.17
2018-12-26T11:56:44.387Z,29.37
2018-12-26T11:57:44.380Z,29.07
2018-12-26T11:58:44.358Z,29.07
2018-12-26T11:59:44.847Z,28.58
2018-12-26T12:00:44.339Z,28.88
2018-12-26T12:01:44.327Z,28.86
2018-12-26T12:02:44.414Z,28.47
2018-12-26T12:03:44.317Z,28.58
2018-12-26T12:04:44.318Z,28.76
2018-12-26T12:05:44.297Z,28.58
2018-12-26T12:06:44.287Z,28.66
2018-12-26T12:07:44.374Z,28.97
2018-12-26T12:08:44.260Z,28.97
2018-12-26T12:09:44.248Z,28.76
2018-12-26T12:10:44.245Z,28.47
2018-12-26T12:11:44.226Z,28.67
2018-12-26T12:12:44.212Z,28.88
2018-12-26T12:13:44.211Z,29.06
2018-12-26T12:14:44.196Z,28.97
2018-12-26T12:15:44.197Z,29.25
2018-12-26T12:16:44.169Z,28.97
2018-12-26T12:17:44.213Z,29.06
2018-12-26T12:18:47.682Z,28.67
2018-12-26T12:19:45.210Z,28.66
2018-12-26T12:20:44.140Z,28.67
2018-12-26T12:21:44.145Z,28.56
2018-12-26T12:22:44.113Z,28.47
2018-12-26T12:23:44.094Z,28.86
2018-12-26T12:24:44.110Z,28.38
2018-12-26T12:25:44.078Z,28.58
2018-12-26T12:26:44.074Z,29.07
2018-12-26T12:27:44.082Z,29.16
2018-12-26T12:28:44.056Z,29.17
2018-12-26T12:29:44.919Z,29.16
2018-12-26T12:30:44.528Z,29.17
2018-12-26T12:31:44.042Z,29.07
2018-12-26T12:32:44.019Z,29.07
2018-12-26T12:33:45.693Z,28.97
2018-12-26T12:34:43.980Z,29.17
2018-12-26T12:35:43.989Z,28.97
2018-12-26T12:36:44.041Z,28.76
2018-12-26T12:37:43.963Z,28.97
2018-12-26T12:38:44.016Z,28.76
2018-12-26T12:39:43.934Z,29.37
2018-12-26T12:40:43.931Z,29.16
2018-12-26T12:41:43.981Z,28.76
2018-12-26T12:42:43.902Z,28.46
2018-12-26T12:43:43.892Z,28.66
2018-12-26T12:44:43.919Z,28.76
2018-12-26T12:45:43.865Z,28.56
2018-12-26T12:46:43.853Z,28.66
2018-12-26T12:47:43.900Z,28.56
2018-12-26T12:48:43.827Z,28.86
2018-12-26T12:49:43.837Z,28.86
2018-12-26T12:50:43.817Z,28.76
2018-12-26T12:51:43.826Z,28.86
2018-12-26T12:52:43.799Z,28.36